Terminal Aerodrome Forecast
Issued by NWS

Home | Current Version | Previous Version | Graphics & Text | Print | Product List | Glossary On
Versions: 1 2 3 4 5 6 7 8 9 10 11 12 13 14 15
000
FTUS43 KICT 231120
TAFHUT
TAF
KHUT 231120Z 2312/2412 28012KT P6SM SCT060
     FM231400 33013KT P6SM BKN035 OVC050
     FM231700 34020G31KT P6SM BKN020 OVC040
      TEMPO 2320/2324 3SM -SNRA OVC015
     FM240100 34017G25KT P6SM OVC020=

USA.gov is the U.S. government's official web portal to all federal, state and local government web resources and services.